Time;durP1;ratioP1;P1;durP2;ratioP2;P2;SDS_P1;SDS_P2;PMS_P1;PMS_P2;Temp;Humidity;BMP_temperature;BMP_pressure;BME280_temperature;BME280_humidity;BME280_pressure;Samples;Min_cycle;Max_cycle;Signal;HPM_P1;HPM_P2
2023/10/26 00:01:14;;;;;;;11.30;6.75;;;9.90;99.90;;;;;;5090558;28;20561;-35
2023/10/26 00:03:39;;;;;;;11.57;6.35;;;9.90;99.90;;;;;;5075452;28;20048;-36
2023/10/26 00:06:05;;;;;;;11.73;6.93;;;9.90;99.90;;;;;;5082247;28;20382;-36
2023/10/26 00:08:30;;;;;;;10.88;7.35;;;9.90;99.90;;;;;;5080451;28;20040;-36
2023/10/26 00:11:00;;;;;;;12.93;7.00;;;9.90;99.90;;;;;;5092859;28;20409;-36
2023/10/26 00:13:26;;;;;;;13.35;7.70;;;9.90;99.90;;;;;;5088894;28;20044;-35
2023/10/26 00:15:52;;;;;;;12.50;7.43;;;9.90;99.90;;;;;;5090588;28;20056;-36
2023/10/26 00:18:17;;;;;;;13.65;7.25;;;9.90;99.90;;;;;;5072927;28;20054;-36
2023/10/26 00:20:45;;;;;;;11.20;6.93;;;9.80;99.90;;;;;;5092053;28;20052;-36
2023/10/26 00:23:11;;;;;;;11.73;6.85;;;9.80;99.90;;;;;;5091968;28;20098;-36
2023/10/26 00:25:36;;;;;;;14.32;7.60;;;9.80;99.90;;;;;;5086973;28;20347;-35
2023/10/26 00:28:02;;;;;;;12.27;6.90;;;9.80;99.90;;;;;;5087155;28;20052;-36
2023/10/26 00:30:28;;;;;;;13.15;7.22;;;9.80;99.90;;;;;;5071350;28;20093;-35
2023/10/26 00:32:54;;;;;;;12.52;7.05;;;9.80;99.90;;;;;;5092255;28;20051;-36
2023/10/26 00:35:19;;;;;;;14.02;6.97;;;9.80;99.90;;;;;;5088978;28;20487;-35
2023/10/26 00:37:45;;;;;;;14.52;7.85;;;9.80;99.90;;;;;;5091468;28;20044;-36
2023/10/26 00:40:11;;;;;;;11.82;6.60;;;9.80;99.90;;;;;;5091776;28;20366;-36
2023/10/26 00:42:38;;;;;;;15.93;7.72;;;9.80;99.90;;;;;;5072233;28;20083;-36
2023/10/26 00:45:04;;;;;;;13.60;7.40;;;9.80;99.90;;;;;;5084085;28;20067;-36
2023/10/26 00:47:31;;;;;;;13.18;7.28;;;9.70;99.90;;;;;;5083276;28;20510;-35
2023/10/26 00:49:58;;;;;;;15.02;7.88;;;9.70;99.90;;;;;;5091537;28;20052;-35
2023/10/26 00:52:24;;;;;;;14.32;7.40;;;9.70;99.90;;;;;;5083092;28;20152;-40
2023/10/26 00:54:51;;;;;;;11.75;7.05;;;9.80;99.90;;;;;;5091183;28;20510;-36
2023/10/26 00:57:19;;;;;;;12.82;8.00;;;9.70;99.90;;;;;;5084045;28;20052;-35
2023/10/26 00:59:47;;;;;;;18.00;8.23;;;9.70;99.90;;;;;;5071367;28;20056;-36
2023/10/26 01:02:15;;;;;;;13.40;7.22;;;9.70;99.90;;;;;;5079399;28;20049;-36
2023/10/26 01:04:41;;;;;;;12.93;7.35;;;9.70;99.90;;;;;;5084437;28;20143;-35
2023/10/26 01:07:07;;;;;;;17.38;8.52;;;9.70;99.90;;;;;;5086260;28;20125;-35
2023/10/26 01:09:33;;;;;;;13.35;7.13;;;9.70;99.90;;;;;;5085852;28;20048;-36
2023/10/26 01:11:58;;;;;;;14.98;8.30;;;9.70;99.90;;;;;;5083442;28;20060;-35
2023/10/26 01:14:24;;;;;;;16.45;8.05;;;9.70;99.90;;;;;;5082720;28;20063;-36
2023/10/26 01:16:50;;;;;;;15.00;7.60;;;9.60;99.90;;;;;;5091162;28;20047;-36
2023/10/26 01:19:16;;;;;;;12.93;7.68;;;9.70;99.90;;;;;;5087131;28;20060;-35
2023/10/26 01:21:52;;;;;;;15.05;9.00;;;9.70;99.90;;;;;;5090224;28;20056;-36
2023/10/26 01:24:18;;;;;;;14.10;8.10;;;9.60;99.90;;;;;;5088508;28;20105;-35
2023/10/26 01:26:44;;;;;;;15.15;8.25;;;9.70;99.90;;;;;;5089493;28;20060;-36
2023/10/26 01:29:10;;;;;;;14.75;8.35;;;9.60;99.90;;;;;;5085211;28;20070;-35
2023/10/26 01:31:36;;;;;;;14.23;8.57;;;9.60;99.90;;;;;;5088536;28;20496;-36
2023/10/26 01:34:01;;;;;;;15.80;8.32;;;9.60;99.90;;;;;;5083181;28;20133;-36
2023/10/26 01:36:27;;;;;;;14.90;8.13;;;9.60;99.90;;;;;;5087415;28;20075;-35
2023/10/26 01:38:55;;;;;;;14.55;8.20;;;9.60;99.90;;;;;;5086242;28;20055;-35
2023/10/26 01:41:21;;;;;;;14.77;7.40;;;9.60;99.90;;;;;;5090641;28;20397;-35
2023/10/26 01:43:47;;;;;;;16.20;8.25;;;9.60;99.90;;;;;;5082485;28;20047;-36
2023/10/26 01:46:13;;;;;;;12.63;7.53;;;9.60;99.90;;;;;;5077612;28;20409;-36
2023/10/26 01:48:39;;;;;;;14.48;8.40;;;9.60;99.90;;;;;;5072411;28;20343;-36
2023/10/26 01:51:05;;;;;;;15.63;8.43;;;9.60;99.90;;;;;;5084880;28;20081;-36
2023/10/26 01:53:31;;;;;;;13.32;7.15;;;9.60;99.90;;;;;;5089690;28;20511;-36
2023/10/26 01:55:56;;;;;;;18.02;8.63;;;9.60;99.90;;;;;;5086349;28;20121;-36
2023/10/26 01:58:22;;;;;;;14.20;8.30;;;9.60;99.90;;;;;;5064839;28;20045;-35
2023/10/26 02:00:48;;;;;;;15.32;7.40;;;9.60;99.90;;;;;;5085398;28;20067;-35
2023/10/26 02:03:15;;;;;;;14.60;8.10;;;9.60;99.90;;;;;;5062995;28;20413;-35
2023/10/26 02:05:41;;;;;;;13.77;8.35;;;9.60;99.90;;;;;;5080741;28;20154;-35
2023/10/26 02:08:06;;;;;;;15.52;9.05;;;9.60;99.90;;;;;;5071517;28;20066;-35
2023/10/26 02:10:33;;;;;;;13.43;7.72;;;9.60;99.90;;;;;;5089545;28;20048;-36
2023/10/26 02:12:59;;;;;;;15.07;8.73;;;9.60;99.90;;;;;;5084721;28;20255;-35
2023/10/26 02:15:25;;;;;;;14.70;8.02;;;9.60;99.90;;;;;;5084439;28;20047;-34
2023/10/26 02:17:50;;;;;;;13.50;7.88;;;9.50;99.90;;;;;;5070835;28;20067;-35
2023/10/26 02:20:16;;;;;;;15.50;8.27;;;9.50;99.90;;;;;;5083798;28;20387;-35
2023/10/26 02:22:42;;;;;;;17.38;9.13;;;9.50;99.90;;;;;;5073111;28;20044;-36
2023/10/26 02:25:08;;;;;;;14.05;6.97;;;9.50;99.90;;;;;;5068935;28;20048;-35
2023/10/26 02:27:34;;;;;;;17.00;8.93;;;9.50;99.90;;;;;;5080062;28;20102;-35
2023/10/26 02:30:00;;;;;;;13.82;8.43;;;9.50;99.90;;;;;;5089693;28;20059;-35
2023/10/26 02:32:26;;;;;;;15.27;8.57;;;9.50;99.90;;;;;;5087740;28;20048;-35
2023/10/26 02:34:52;;;;;;;13.90;8.05;;;9.50;99.90;;;;;;5088529;28;20405;-35
2023/10/26 02:37:21;;;;;;;14.45;7.72;;;9.50;99.90;;;;;;5065753;28;20059;-34
2023/10/26 02:39:46;;;;;;;16.30;9.20;;;9.50;99.90;;;;;;5072908;28;20414;-35
2023/10/26 02:42:12;;;;;;;14.07;7.88;;;9.50;99.90;;;;;;5087728;28;20052;-35
2023/10/26 02:44:38;;;;;;;16.02;8.63;;;9.50;99.90;;;;;;5086948;28;20413;-35
2023/10/26 02:47:03;;;;;;;13.00;8.07;;;9.50;99.90;;;;;;5084449;28;20506;-35
2023/10/26 02:49:33;;;;;;;13.57;8.25;;;9.50;99.90;;;;;;5078363;28;20055;-35
2023/10/26 02:51:58;;;;;;;14.77;7.68;;;9.50;99.90;;;;;;5089170;28;20112;-35
2023/10/26 02:54:27;;;;;;;12.43;6.90;;;9.50;99.90;;;;;;5086601;28;20139;-35
2023/10/26 02:56:53;;;;;;;14.70;7.18;;;9.50;99.90;;;;;;5080626;28;20486;-35
2023/10/26 02:59:19;;;;;;;14.27;7.97;;;9.50;99.90;;;;;;5083081;28;20479;-36
2023/10/26 03:01:45;;;;;;;15.88;7.95;;;9.50;99.90;;;;;;5088938;28;20044;-35
2023/10/26 03:04:11;;;;;;;13.90;6.78;;;9.50;99.90;;;;;;5089549;28;20113;-36
2023/10/26 03:06:37;;;;;;;17.13;9.50;;;9.50;99.90;;;;;;5086211;28;20052;-36
2023/10/26 03:09:04;;;;;;;13.50;7.88;;;9.50;99.90;;;;;;5084500;28;20096;-36
2023/10/26 03:11:30;;;;;;;14.73;7.45;;;9.50;99.90;;;;;;5070896;28;20055;-36
2023/10/26 03:13:56;;;;;;;16.25;8.68;;;9.50;99.90;;;;;;5077838;28;20063;-35
2023/10/26 03:16:21;;;;;;;14.52;8.00;;;9.50;99.90;;;;;;5087855;28;20048;-36
2023/10/26 03:18:47;;;;;;;13.00;7.18;;;9.50;99.90;;;;;;5087924;28;20058;-36
2023/10/26 03:21:15;;;;;;;17.80;7.63;;;9.50;99.90;;;;;;5088702;28;20048;-36
2023/10/26 03:23:40;;;;;;;14.40;8.30;;;9.50;99.90;;;;;;5081016;28;20067;-35
2023/10/26 03:26:10;;;;;;;11.93;6.68;;;9.40;99.90;;;;;;5072377;28;20056;-35
2023/10/26 03:28:36;;;;;;;12.93;7.22;;;9.50;99.90;;;;;;5086652;28;20044;-35
2023/10/26 03:31:01;;;;;;;12.27;7.20;;;9.40;99.90;;;;;;5087982;28;20105;-36
2023/10/26 03:33:27;;;;;;;16.67;8.85;;;9.40;99.90;;;;;;5083508;28;20048;-36
2023/10/26 03:35:52;;;;;;;16.60;8.00;;;9.40;99.90;;;;;;5080148;28;20048;-36
2023/10/26 03:38:18;;;;;;;16.17;8.20;;;9.40;99.90;;;;;;5062611;28;20133;-36
2023/10/26 03:40:44;;;;;;;13.70;7.93;;;9.30;99.90;;;;;;5079393;28;20051;-36
2023/10/26 03:43:09;;;;;;;16.35;7.68;;;9.40;99.90;;;;;;5088108;28;20115;-36
2023/10/26 03:45:35;;;;;;;16.75;8.50;;;9.30;99.90;;;;;;5082310;28;20391;-35
2023/10/26 03:48:00;;;;;;;12.40;7.28;;;9.30;99.90;;;;;;5084457;28;20134;-36
2023/10/26 03:50:26;;;;;;;11.75;7.43;;;9.30;99.90;;;;;;5088358;28;20117;-36
2023/10/26 03:52:52;;;;;;;11.60;7.13;;;9.30;99.90;;;;;;5088240;28;20115;-35
2023/10/26 03:55:17;;;;;;;14.60;7.75;;;9.20;99.90;;;;;;5088464;28;20086;-36
2023/10/26 03:57:44;;;;;;;14.55;8.15;;;9.20;99.90;;;;;;5076645;28;20406;-43
2023/10/26 04:00:10;;;;;;;13.18;7.32;;;9.20;99.90;;;;;;5082872;28;20059;-35
2023/10/26 04:02:36;;;;;;;11.13;6.97;;;9.10;99.90;;;;;;5087940;28;20047;-36
2023/10/26 04:05:04;;;;;;;12.55;7.40;;;9.00;99.90;;;;;;5082940;28;20056;-36
2023/10/26 04:07:30;;;;;;;14.65;7.03;;;9.00;99.90;;;;;;5086524;28;20084;-36
2023/10/26 04:09:56;;;;;;;15.95;7.55;;;9.00;99.90;;;;;;5080731;28;20118;-36
2023/10/26 04:12:21;;;;;;;14.48;7.18;;;8.90;99.90;;;;;;5082909;28;20063;-36
2023/10/26 04:14:47;;;;;;;11.95;7.18;;;8.90;99.90;;;;;;5087757;28;20082;-37
2023/10/26 04:17:14;;;;;;;10.55;6.45;;;8.80;99.90;;;;;;5087564;28;20059;-36
2023/10/26 04:19:40;;;;;;;12.10;7.05;;;8.80;99.90;;;;;;5088573;28;20052;-36
2023/10/26 04:22:06;;;;;;;15.73;7.50;;;8.80;99.90;;;;;;5053083;28;20109;-35
2023/10/26 04:24:33;;;;;;;12.18;6.35;;;8.80;99.90;;;;;;5086040;28;20405;-35
2023/10/26 04:27:00;;;;;;;12.40;6.65;;;8.80;99.90;;;;;;5076283;28;20527;-35
2023/10/26 04:29:25;;;;;;;12.90;6.22;;;8.80;99.90;;;;;;5084084;28;20131;-35
2023/10/26 04:31:51;;;;;;;11.55;6.88;;;8.80;99.90;;;;;;5067688;28;20178;-35
2023/10/26 04:34:16;;;;;;;10.95;6.47;;;8.80;99.90;;;;;;5071003;28;20105;-40
2023/10/26 04:36:42;;;;;;;8.85;5.60;;;8.80;99.90;;;;;;5079601;28;20056;-35
2023/10/26 04:39:09;;;;;;;14.65;7.43;;;8.70;99.90;;;;;;5079192;28;20457;-35
2023/10/26 04:41:36;;;;;;;30.95;9.05;;;8.70;99.90;;;;;;5064690;28;20077;-35
2023/10/26 04:44:04;;;;;;;25.83;8.40;;;8.70;99.90;;;;;;5059345;28;20053;-36
2023/10/26 04:46:30;;;;;;;40.28;10.43;;;8.80;99.90;;;;;;5060440;28;20114;-35
2023/10/26 04:48:56;;;;;;;124.32;15.43;;;8.80;99.90;;;;;;5074996;28;20149;-36
2023/10/26 04:51:22;;;;;;;127.85;17.85;;;8.80;99.90;;;;;;5071566;28;20048;-37
2023/10/26 04:53:47;;;;;;;106.38;14.75;;;8.80;99.90;;;;;;5064207;28;20415;-35
2023/10/26 04:56:13;;;;;;;192.38;19.88;;;8.80;99.90;;;;;;5065408;28;20533;-36
2023/10/26 04:58:38;;;;;;;127.30;16.27;;;8.80;99.90;;;;;;5078202;28;20048;-35
2023/10/26 05:01:05;;;;;;;52.33;11.68;;;8.80;99.90;;;;;;5075148;28;20201;-36
2023/10/26 05:03:31;;;;;;;103.97;14.68;;;8.80;99.90;;;;;;5048300;28;20045;-35
2023/10/26 05:05:57;;;;;;;105.03;14.98;;;8.90;99.90;;;;;;5086149;28;20071;-35
2023/10/26 05:08:22;;;;;;;130.57;15.40;;;8.90;99.90;;;;;;5053867;28;20044;-35
2023/10/26 05:10:48;;;;;;;119.80;15.55;;;8.80;99.90;;;;;;5085159;28;20055;-35
2023/10/26 05:13:14;;;;;;;222.23;21.38;;;8.80;99.90;;;;;;5078074;28;20044;-36
2023/10/26 05:15:39;;;;;;;41.33;8.98;;;8.80;99.90;;;;;;5067515;28;20049;-35
2023/10/26 05:18:05;;;;;;;194.40;23.88;;;8.80;99.90;;;;;;5069695;28;20055;-36
2023/10/26 05:20:32;;;;;;;132.95;15.30;;;8.80;99.90;;;;;;5069637;28;20044;-36
2023/10/26 05:22:59;;;;;;;142.82;18.60;;;8.80;99.90;;;;;;5077559;28;20049;-36
2023/10/26 05:25:25;;;;;;;116.40;14.35;;;8.80;99.90;;;;;;5072481;28;20128;-36
2023/10/26 05:27:53;;;;;;;61.25;11.95;;;8.80;99.90;;;;;;5070073;28;20065;-36
2023/10/26 05:30:18;;;;;;;79.70;13.10;;;8.90;99.90;;;;;;5068371;28;20127;-35
2023/10/26 05:32:44;;;;;;;63.63;10.38;;;8.90;99.90;;;;;;5052392;28;20383;-35
2023/10/26 05:35:10;;;;;;;57.08;11.15;;;8.90;99.90;;;;;;5069610;28;20056;-35
2023/10/26 05:37:36;;;;;;;41.90;10.10;;;8.90;99.90;;;;;;5070814;28;20084;-35
2023/10/26 05:40:04;;;;;;;46.50;11.07;;;8.90;99.90;;;;;;5070049;28;20045;-35
2023/10/26 05:42:30;;;;;;;56.92;10.63;;;8.90;99.90;;;;;;5070660;28;20101;-35
2023/10/26 05:44:56;;;;;;;166.45;20.52;;;8.90;99.90;;;;;;5069620;28;20056;-36
2023/10/26 05:47:22;;;;;;;88.80;13.70;;;8.90;99.90;;;;;;5070021;28;20140;-35
2023/10/26 05:49:48;;;;;;;43.15;9.45;;;8.90;99.90;;;;;;5070853;28;20045;-35
2023/10/26 05:52:15;;;;;;;42.17;8.68;;;8.90;99.90;;;;;;5069247;28;20076;-35
2023/10/26 05:54:40;;;;;;;81.93;12.00;;;8.90;99.90;;;;;;5069883;28;20044;-35
2023/10/26 05:57:06;;;;;;;40.75;9.35;;;8.80;99.90;;;;;;5069317;28;20151;-35
2023/10/26 05:59:32;;;;;;;43.15;8.45;;;8.80;99.90;;;;;;5070418;28;20036;-35
2023/10/26 06:01:58;;;;;;;113.15;15.25;;;8.80;99.90;;;;;;5069900;28;20045;-36
2023/10/26 06:04:24;;;;;;;49.58;10.00;;;8.80;99.90;;;;;;5069618;28;20040;-35
2023/10/26 06:06:50;;;;;;;59.92;10.35;;;8.80;99.90;;;;;;5052233;28;20131;-35
2023/10/26 06:09:16;;;;;;;74.03;10.68;;;8.80;99.90;;;;;;5069799;28;20471;-35
2023/10/26 06:11:41;;;;;;;72.50;11.93;;;8.70;99.90;;;;;;5070063;28;20410;-36
2023/10/26 06:14:08;;;;;;;41.30;8.73;;;8.70;99.90;;;;;;5069654;28;20052;-35
2023/10/26 06:16:34;;;;;;;37.55;8.30;;;8.70;99.90;;;;;;5069750;28;20040;-36
2023/10/26 06:19:00;;;;;;;25.20;7.97;;;8.60;99.90;;;;;;5069389;28;20052;-36
2023/10/26 06:21:27;;;;;;;21.48;7.60;;;8.60;99.90;;;;;;5069490;28;20160;-35
2023/10/26 06:23:53;;;;;;;25.83;8.48;;;8.60;99.90;;;;;;5070965;28;20123;-34
2023/10/26 06:26:19;;;;;;;22.27;7.78;;;8.50;99.90;;;;;;5073062;28;20057;-35
2023/10/26 06:28:46;;;;;;;35.08;8.98;;;8.50;99.90;;;;;;5078183;28;20076;-36
2023/10/26 06:31:16;;;;;;;49.83;10.82;;;8.50;99.90;;;;;;5075791;28;20059;-35
2023/10/26 06:33:42;;;;;;;45.25;9.85;;;8.50;99.90;;;;;;5073450;28;20094;-35
2023/10/26 06:36:10;;;;;;;42.03;9.77;;;8.40;99.90;;;;;;5075385;28;20059;-35
2023/10/26 06:38:40;;;;;;;42.50;10.80;;;8.50;99.90;;;;;;5074423;28;20120;-35
2023/10/26 06:41:06;;;;;;;36.70;12.05;;;8.50;99.90;;;;;;5080053;28;20051;-36
2023/10/26 06:43:32;;;;;;;46.65;11.18;;;8.40;99.90;;;;;;5055177;28;20048;-36
2023/10/26 06:46:00;;;;;;;39.70;10.10;;;8.40;99.90;;;;;;5061991;28;20506;-35
2023/10/26 06:48:25;;;;;;;65.95;12.73;;;8.40;99.90;;;;;;5077147;28;20040;-36
2023/10/26 06:51:00;;;;;;;72.53;14.77;;;8.40;99.90;;;;;;5080931;28;20418;-35
2023/10/26 06:53:26;;;;;;;65.82;12.73;;;8.50;99.90;;;;;;5065739;28;20512;-36
2023/10/26 06:55:52;;;;;;;93.10;13.75;;;8.50;99.90;;;;;;5075038;28;20044;-35
2023/10/26 06:58:18;;;;;;;126.13;15.20;;;8.50;99.90;;;;;;5076568;28;20057;-35
2023/10/26 07:00:44;;;;;;;124.68;15.93;;;8.50;99.90;;;;;;5070830;28;20113;-35
2023/10/26 07:03:10;;;;;;;115.82;15.45;;;8.50;99.90;;;;;;5070635;28;20143;-35
2023/10/26 07:05:36;;;;;;;59.08;9.80;;;8.50;99.90;;;;;;5069945;28;20048;-35
2023/10/26 07:08:01;;;;;;;92.82;12.77;;;8.60;99.90;;;;;;5077466;28;20496;-35
2023/10/26 07:10:27;;;;;;;64.07;12.80;;;8.60;99.90;;;;;;5082481;28;20078;-35
2023/10/26 07:12:53;;;;;;;76.95;11.70;;;8.60;99.90;;;;;;5083885;28;20415;-35
2023/10/26 07:15:18;;;;;;;107.15;14.30;;;8.70;99.90;;;;;;5069817;28;20052;-36
2023/10/26 07:17:44;;;;;;;108.50;13.50;;;8.70;99.90;;;;;;5063945;28;20052;-35
2023/10/26 07:20:12;;;;;;;107.13;13.10;;;8.80;99.90;;;;;;5078990;28;20494;-35
2023/10/26 07:22:39;;;;;;;90.30;13.98;;;8.80;99.90;;;;;;5075179;28;20125;-35
2023/10/26 07:25:06;;;;;;;106.95;16.55;;;8.80;99.90;;;;;;5077310;28;20184;-35
2023/10/26 07:27:32;;;;;;;110.60;14.00;;;8.80;99.90;;;;;;5073625;28;20506;-35
2023/10/26 07:29:59;;;;;;;42.40;10.10;;;8.80;99.90;;;;;;5069705;28;20052;-35
2023/10/26 07:32:25;;;;;;;86.22;13.82;;;8.90;99.90;;;;;;5083123;28;20051;-35
2023/10/26 07:34:51;;;;;;;116.82;14.40;;;8.90;99.90;;;;;;5084132;28;20064;-36
2023/10/26 07:37:17;;;;;;;114.57;12.35;;;8.90;99.90;;;;;;5082186;28;20058;-36
2023/10/26 07:39:43;;;;;;;54.90;10.13;;;8.90;99.90;;;;;;5067436;28;20052;-35
2023/10/26 07:42:08;;;;;;;64.50;10.30;;;9.00;99.90;;;;;;5085313;28;20052;-34
2023/10/26 07:44:35;;;;;;;88.63;13.75;;;9.00;99.90;;;;;;5064646;28;20064;-34
2023/10/26 07:47:01;;;;;;;17.73;6.82;;;9.00;99.90;;;;;;5084645;28;20143;-34
2023/10/26 07:49:27;;;;;;;85.93;14.27;;;9.10;99.90;;;;;;5080160;28;20151;-34
2023/10/26 07:51:52;;;;;;;114.70;15.35;;;9.10;99.90;;;;;;5085042;28;20051;-34
2023/10/26 07:54:18;;;;;;;107.88;12.77;;;9.10;99.90;;;;;;5087614;28;20097;-35
2023/10/26 07:56:44;;;;;;;106.93;15.20;;;9.10;99.90;;;;;;5087287;28;20048;-35
2023/10/26 07:59:09;;;;;;;71.82;12.05;;;9.10;99.90;;;;;;5083376;28;20135;-34
2023/10/26 08:01:36;;;;;;;52.90;10.77;;;9.20;99.90;;;;;;5086532;28;20448;-35
2023/10/26 08:04:02;;;;;;;85.13;14.80;;;9.20;99.90;;;;;;5088725;28;20430;-34
2023/10/26 08:06:28;;;;;;;47.90;11.35;;;9.20;99.90;;;;;;5085257;28;20236;-35
2023/10/26 08:08:53;;;;;;;54.17;11.18;;;9.30;99.90;;;;;;5090637;28;20382;-35
2023/10/26 08:11:19;;;;;;;59.05;11.73;;;9.40;99.90;;;;;;5088548;28;20139;-35
2023/10/26 08:13:45;;;;;;;57.78;12.07;;;9.40;99.90;;;;;;5091582;28;20076;-34
2023/10/26 08:16:11;;;;;;;55.50;12.90;;;9.50;99.90;;;;;;5091606;28;20174;-34
2023/10/26 08:18:37;;;;;;;44.17;10.07;;;9.50;99.90;;;;;;5083950;28;20465;-34
2023/10/26 08:21:05;;;;;;;25.15;9.43;;;9.60;99.90;;;;;;5091016;28;20055;-35
2023/10/26 08:23:32;;;;;;;57.00;11.77;;;9.60;99.90;;;;;;5073435;28;20056;-35
2023/10/26 08:26:06;;;;;;;47.28;10.82;;;9.60;99.90;;;;;;5086398;28;20052;-35
2023/10/26 08:28:33;;;;;;;25.55;9.10;;;9.60;99.90;;;;;;5075224;28;20569;-35
2023/10/26 08:31:00;;;;;;;29.98;9.38;;;9.60;99.90;;;;;;5092783;28;20054;-36
2023/10/26 08:33:29;;;;;;;29.13;8.45;;;9.70;99.90;;;;;;5085918;28;20559;-36
2023/10/26 08:35:55;;;;;;;32.03;9.73;;;9.80;99.90;;;;;;5083238;28;20059;-36
2023/10/26 08:38:20;;;;;;;20.55;10.52;;;9.90;99.90;;;;;;5089476;28;20045;-35
2023/10/26 08:40:51;;;;;;;20.98;9.52;;;10.00;99.90;;;;;;5086847;28;20544;-36
2023/10/26 08:43:21;;;;;;;16.33;8.65;;;10.10;99.90;;;;;;5089721;28;20040;-35
2023/10/26 08:45:47;;;;;;;16.92;9.13;;;10.10;99.90;;;;;;5081691;28;20117;-36
2023/10/26 08:48:17;;;;;;;18.45;9.77;;;10.20;99.90;;;;;;5079950;28;20109;-35
2023/10/26 08:50:45;;;;;;;16.05;9.50;;;10.30;99.90;;;;;;5080520;28;20059;-35
2023/10/26 08:53:11;;;;;;;17.13;10.18;;;10.40;99.90;;;;;;5085954;28;20497;-36
2023/10/26 08:55:39;;;;;;;19.88;9.48;;;10.50;99.90;;;;;;5092251;28;20063;-36
2023/10/26 08:58:05;;;;;;;18.77;10.27;;;10.60;99.90;;;;;;5083689;28;20044;-36
2023/10/26 09:00:31;;;;;;;14.15;9.20;;;10.70;99.90;;;;;;5066114;28;20047;-36
2023/10/26 09:02:57;;;;;;;18.27;10.77;;;10.80;99.90;;;;;;5086191;28;20061;-36
2023/10/26 09:05:22;;;;;;;16.27;9.82;;;10.90;99.90;;;;;;5086971;28;20051;-36
2023/10/26 09:07:49;;;;;;;13.48;8.55;;;11.10;99.90;;;;;;5088451;28;20497;-36
2023/10/26 09:10:32;;;;;;;15.57;9.50;;;11.30;99.90;;;;;;5090237;28;20413;-35
2023/10/26 09:13:04;;;;;;;14.68;9.50;;;11.60;99.90;;;;;;5063483;28;20052;-35
2023/10/26 09:15:30;;;;;;;14.38;8.30;;;11.80;99.90;;;;;;5083264;28;20441;-34
2023/10/26 09:17:57;;;;;;;13.65;9.10;;;11.90;99.90;;;;;;5078584;28;20048;-45
2023/10/26 09:20:24;;;;;;;14.23;8.95;;;12.00;99.90;;;;;;5086013;28;20109;-35
2023/10/26 09:22:50;;;;;;;12.80;7.95;;;12.20;99.90;;;;;;5091197;28;20048;-35
2023/10/26 09:25:16;;;;;;;14.73;9.20;;;12.20;99.90;;;;;;5082000;28;20055;-35
2023/10/26 09:27:44;;;;;;;12.82;8.40;;;12.10;99.90;;;;;;5083000;28;20065;-37
2023/10/26 09:30:30;;;;;;;13.18;8.48;;;12.00;99.90;;;;;;5089481;28;20055;-35
2023/10/26 09:32:59;;;;;;;15.43;9.23;;;11.90;99.90;;;;;;5085924;28;20071;-35
2023/10/26 09:35:29;;;;;;;16.35;9.50;;;11.90;99.90;;;;;;5072968;28;20127;-36
2023/10/26 09:37:56;;;;;;;15.15;10.05;;;11.80;99.90;;;;;;5090426;28;20043;-35
2023/10/26 09:40:22;;;;;;;14.55;8.93;;;11.70;99.90;;;;;;5086051;28;20455;-35
2023/10/26 09:42:49;;;;;;;16.45;10.18;;;11.60;99.90;;;;;;5085377;28;20059;-35
2023/10/26 09:45:18;;;;;;;16.77;10.10;;;11.60;99.90;;;;;;5090584;28;20052;-35
2023/10/26 09:47:45;;;;;;;16.95;10.52;;;11.60;99.90;;;;;;5084799;28;20052;-34
2023/10/26 09:50:11;;;;;;;18.15;10.75;;;11.60;99.90;;;;;;5090482;28;20529;-35
2023/10/26 09:52:38;;;;;;;16.50;10.32;;;11.70;99.90;;;;;;5080328;28;20138;-35
2023/10/26 09:55:06;;;;;;;17.35;10.10;;;11.80;99.90;;;;;;5090617;28;20406;-35
2023/10/26 09:57:59;;;;;;;14.18;9.90;;;11.90;99.90;;;;;;5086835;28;20044;-35
2023/10/26 10:00:31;;;;;;;14.25;9.52;;;12.00;99.90;;;;;;5087039;28;20059;-42
2023/10/26 10:03:14;;;;;;;20.77;10.90;;;12.20;99.90;;;;;;5090660;28;20059;-36
2023/10/26 10:05:42;;;;;;;16.05;9.73;;;12.40;99.90;;;;;;5083652;28;20147;-36
2023/10/26 10:08:08;;;;;;;15.48;9.95;;;12.60;99.90;;;;;;5088711;28;20070;-35
2023/10/26 10:10:34;;;;;;;14.02;8.85;;;12.60;99.90;;;;;;5082418;28;20048;-36
2023/10/26 10:13:00;;;;;;;13.80;9.32;;;12.70;99.90;;;;;;5088701;28;20136;-37
2023/10/26 10:15:39;;;;;;;13.98;9.27;;;12.70;99.90;;;;;;5082888;28;20070;-36
2023/10/26 10:18:06;;;;;;;15.93;10.60;;;12.70;99.90;;;;;;5087458;28;20478;-36
2023/10/26 10:20:36;;;;;;;15.52;9.93;;;12.80;99.90;;;;;;5086761;28;20052;-36
2023/10/26 10:23:03;;;;;;;15.13;8.57;;;12.80;99.90;;;;;;5083134;28;20178;-36
2023/10/26 10:25:50;;;;;;;13.18;9.05;;;12.90;99.90;;;;;;5081284;28;20057;-36
2023/10/26 10:28:18;;;;;;;12.77;8.25;;;12.90;99.90;;;;;;5080511;28;20067;-36
2023/10/26 10:30:57;;;;;;;12.35;7.47;;;13.00;99.90;;;;;;5087028;28;20086;-36
2023/10/26 10:33:27;;;;;;;11.98;7.93;;;13.00;99.90;;;;;;5089023;28;20044;-36
2023/10/26 10:36:03;;;;;;;13.15;8.25;;;13.00;99.90;;;;;;5068127;28;20048;-36
2023/10/26 10:38:29;;;;;;;12.70;7.30;;;13.10;99.90;;;;;;5067591;28;20079;-35
2023/10/26 10:40:55;;;;;;;12.88;8.40;;;13.30;99.90;;;;;;5078781;28;20486;-35
2023/10/26 10:43:46;;;;;;;12.93;8.10;;;13.40;99.90;;;;;;5076179;28;20062;-35
2023/10/26 10:46:23;;;;;;;12.38;7.93;;;13.50;99.90;;;;;;5082778;28;20056;-36
2023/10/26 10:49:00;;;;;;;11.98;7.88;;;13.50;99.90;;;;;;5088158;28;20774;-34
2023/10/26 10:51:35;;;;;;;13.63;8.93;;;13.50;99.90;;;;;;5088988;28;20124;-35
2023/10/26 10:54:04;;;;;;;12.75;7.68;;;13.50;99.90;;;;;;5084438;28;20504;-35
2023/10/26 10:56:46;;;;;;;13.00;7.53;;;13.60;99.90;;;;;;5070410;28;20133;-35
2023/10/26 10:59:22;;;;;;;13.27;7.63;;;13.70;99.90;;;;;;5083189;28;20055;-34
2023/10/26 11:01:50;;;;;;;13.65;8.23;;;13.80;99.90;;;;;;5080126;28;20079;-35
2023/10/26 11:04:16;;;;;;;11.13;6.75;;;13.90;99.90;;;;;;5089414;28;20044;-35
2023/10/26 11:06:47;;;;;;;16.20;8.10;;;13.90;99.90;;;;;;5086467;28;20398;-35
2023/10/26 11:09:31;;;;;;;12.35;8.00;;;14.00;99.90;;;;;;5077371;28;20039;-36
2023/10/26 11:12:11;;;;;;;11.52;7.57;;;14.00;99.90;;;;;;5069438;28;20055;-35
2023/10/26 11:14:46;;;;;;;10.82;6.80;;;13.80;99.90;;;;;;5081266;28;20481;-35
2023/10/26 11:17:14;;;;;;;12.13;7.45;;;13.80;99.90;;;;;;5065343;28;20060;-36
2023/10/26 11:19:39;;;;;;;11.43;7.72;;;13.70;99.90;;;;;;5067622;28;20048;-35
2023/10/26 11:22:06;;;;;;;11.00;7.43;;;13.90;99.90;;;;;;5081076;28;20100;-39
2023/10/26 11:24:32;;;;;;;10.85;7.03;;;14.10;99.90;;;;;;5088902;28;20048;-41
2023/10/26 11:27:24;;;;;;;13.00;7.97;;;14.30;99.90;;;;;;5082245;28;20509;-36
2023/10/26 11:30:04;;;;;;;10.25;6.95;;;14.40;99.90;;;;;;5082637;28;20055;-36
2023/10/26 11:32:30;;;;;;;11.20;6.80;;;14.60;99.90;;;;;;5079678;28;20464;-53
2023/10/26 11:35:06;;;;;;;12.38;6.63;;;14.70;99.90;;;;;;5088021;28;20056;-35
2023/10/26 11:37:33;;;;;;;9.68;5.85;;;14.60;99.90;;;;;;5088878;28;20134;-36
2023/10/26 11:39:59;;;;;;;10.10;6.32;;;14.60;99.90;;;;;;5087361;28;20071;-36
2023/10/26 11:42:51;;;;;;;10.75;6.18;;;14.50;99.90;;;;;;5085442;28;20064;-36
2023/10/26 11:45:18;;;;;;;8.93;5.53;;;14.30;99.90;;;;;;5080687;28;20090;-36
2023/10/26 11:47:48;;;;;;;10.35;6.38;;;14.20;99.90;;;;;;5086924;28;20556;-35
2023/10/26 11:50:21;;;;;;;11.77;6.65;;;14.30;99.90;;;;;;5087192;28;20053;-36
2023/10/26 11:52:48;;;;;;;11.90;7.18;;;14.30;99.90;;;;;;5083552;28;20498;-36
2023/10/26 11:55:14;;;;;;;11.23;7.10;;;14.20;99.90;;;;;;5087965;28;20179;-36
2023/10/26 11:57:40;;;;;;;11.55;6.47;;;14.10;99.90;;;;;;5085741;28;20061;-36
2023/10/26 12:00:07;;;;;;;11.15;6.80;;;14.20;99.90;;;;;;5092018;28;20052;-37
2023/10/26 12:02:34;;;;;;;10.68;6.72;;;14.30;99.90;;;;;;5082362;28;20044;-35
2023/10/26 12:05:00;;;;;;;10.52;6.50;;;14.50;99.90;;;;;;5084274;28;20590;-35
2023/10/26 12:07:26;;;;;;;12.45;7.25;;;14.80;99.90;;;;;;5092584;28;20075;-36
2023/10/26 12:09:51;;;;;;;11.00;6.70;;;15.00;99.90;;;;;;5090386;28;20091;-36
2023/10/26 12:12:17;;;;;;;10.70;7.53;;;15.30;99.90;;;;;;5073757;28;20052;-36
2023/10/26 12:14:43;;;;;;;9.95;6.53;;;15.60;99.90;;;;;;5092354;28;20124;-36
2023/10/26 12:17:09;;;;;;;10.57;6.85;;;15.90;99.90;;;;;;5088342;28;20141;-36
2023/10/26 12:19:36;;;;;;;10.07;6.35;;;16.20;99.90;;;;;;5073656;28;20051;-39
2023/10/26 12:22:01;;;;;;;9.80;5.93;;;16.40;99.90;;;;;;5086754;28;20059;-36
2023/10/26 12:24:29;;;;;;;8.57;6.50;;;16.50;99.90;;;;;;5087144;28;20052;-36
2023/10/26 12:26:59;;;;;;;8.88;5.80;;;16.40;99.90;;;;;;5089986;28;20056;-36
2023/10/26 12:29:24;;;;;;;12.02;6.53;;;16.60;99.90;;;;;;5079571;28;20091;-36
2023/10/26 12:31:50;;;;;;;10.27;6.00;;;17.10;99.90;;;;;;5091058;28;20438;-36
2023/10/26 12:34:16;;;;;;;9.40;6.25;;;17.40;99.90;;;;;;5086435;28;20492;-36
2023/10/26 12:36:41;;;;;;;11.02;5.95;;;17.70;99.90;;;;;;5086010;28;20083;-36
2023/10/26 12:39:07;;;;;;;8.45;5.22;;;18.00;99.90;;;;;;5091390;28;20075;-35
2023/10/26 12:41:33;;;;;;;7.18;4.72;;;18.30;99.90;;;;;;5092102;28;20040;-36